Xi Ujimqin Qi, China
Current Conditions -  °F | °C
As of 5:00 PM on Wednesday 26 Nov 2014 (Local Time) from ZBAA Reporting Station
Haze Haze  
Wind Chill: 43°   Ceiling: Unl
Heat Index: 43°   Visibility: 1mi
Dew Point: 34°   Wind: 2mph
Humidity: 70%   Direction: 90°E
Pressure: 30"   Gusts: NA
Location:  44.58°N, 117.6°E
Report Text: ZBAA 260900Z 09001MPS 1700 HZ NSC 06/01 Q1016 NOSIG
Loading
Personal Weather Stations






























Interactive Weather Map New forecast layout! Learn more

10-Day Weather Forecast

Advertisements
Track Severe Weather on mobile